sensor_id;sensor_type;location;lat;lon;timestamp;temperature;humidity
23568;DHT22;11962;50.838;4.430;2023-01-05T00:01:11;11.70;99.90
23568;DHT22;11962;50.838;4.430;2023-01-05T00:03:39;11.70;99.90
23568;DHT22;11962;50.838;4.430;2023-01-05T00:06:08;11.70;99.90
23568;DHT22;11962;50.838;4.430;2023-01-05T00:08:35;11.70;99.90
23568;DHT22;11962;50.838;4.430;2023-01-05T00:11:10;11.70;99.90
23568;DHT22;11962;50.838;4.430;2023-01-05T00:13:55;11.70;99.90
23568;DHT22;11962;50.838;4.430;2023-01-05T00:16:39;11.70;99.90
23568;DHT22;11962;50.838;4.430;2023-01-05T00:19:24;11.70;99.90
23568;DHT22;11962;50.838;4.430;2023-01-05T00:22:19;11.70;99.90
23568;DHT22;11962;50.838;4.430;2023-01-05T00:25:04;11.70;99.90
23568;DHT22;11962;50.838;4.430;2023-01-05T00:27:30;11.60;99.90
23568;DHT22;11962;50.838;4.430;2023-01-05T00:29:57;11.60;99.90
23568;DHT22;11962;50.838;4.430;2023-01-05T00:32:23;11.70;99.90
23568;DHT22;11962;50.838;4.430;2023-01-05T00:34:49;11.70;99.90
23568;DHT22;11962;50.838;4.430;2023-01-05T00:37:15;11.70;99.90
23568;DHT22;11962;50.838;4.430;2023-01-05T00:39:44;11.70;99.90
23568;DHT22;11962;50.838;4.430;2023-01-05T00:42:12;11.70;99.90
23568;DHT22;11962;50.838;4.430;2023-01-05T00:44:38;11.70;99.90
23568;DHT22;11962;50.838;4.430;2023-01-05T00:47:04;11.80;99.90
23568;DHT22;11962;50.838;4.430;2023-01-05T00:49:29;11.80;99.90
23568;DHT22;11962;50.838;4.430;2023-01-05T00:51:55;11.70;99.90
23568;DHT22;11962;50.838;4.430;2023-01-05T00:54:21;11.70;99.90
23568;DHT22;11962;50.838;4.430;2023-01-05T00:56:47;11.70;99.90
23568;DHT22;11962;50.838;4.430;2023-01-05T00:59:16;11.70;99.90
23568;DHT22;11962;50.838;4.430;2023-01-05T01:01:48;11.70;99.90
23568;DHT22;11962;50.838;4.430;2023-01-05T01:04:14;11.80;99.90
23568;DHT22;11962;50.838;4.430;2023-01-05T01:06:40;11.80;99.90
23568;DHT22;11962;50.838;4.430;2023-01-05T01:09:06;11.80;99.90
23568;DHT22;11962;50.838;4.430;2023-01-05T01:11:32;11.80;99.90
23568;DHT22;11962;50.838;4.430;2023-01-05T01:14:09;11.70;99.90
23568;DHT22;11962;50.838;4.430;2023-01-05T01:16:39;11.70;99.90
23568;DHT22;11962;50.838;4.430;2023-01-05T01:19:05;11.70;99.90
23568;DHT22;11962;50.838;4.430;2023-01-05T01:21:31;11.70;99.90
23568;DHT22;11962;50.838;4.430;2023-01-05T01:23:57;11.70;99.90
23568;DHT22;11962;50.838;4.430;2023-01-05T01:26:22;11.70;99.90
23568;DHT22;11962;50.838;4.430;2023-01-05T01:28:48;11.70;99.90
23568;DHT22;11962;50.838;4.430;2023-01-05T01:31:14;11.70;99.90
23568;DHT22;11962;50.838;4.430;2023-01-05T01:33:45;11.60;99.90
23568;DHT22;11962;50.838;4.430;2023-01-05T01:36:16;11.60;99.90
23568;DHT22;11962;50.838;4.430;2023-01-05T01:38:44;11.60;99.90
23568;DHT22;11962;50.838;4.430;2023-01-05T01:41:11;11.60;99.90
23568;DHT22;11962;50.838;4.430;2023-01-05T01:46:08;11.60;99.90
23568;DHT22;11962;50.838;4.430;2023-01-05T01:48:39;11.60;99.90
23568;DHT22;11962;50.838;4.430;2023-01-05T01:54:17;11.70;99.90
23568;DHT22;11962;50.838;4.430;2023-01-05T01:57:03;11.80;99.90
23568;DHT22;11962;50.838;4.430;2023-01-05T01:59:32;11.90;99.90
23568;DHT22;11962;50.838;4.430;2023-01-05T02:01:59;11.90;99.90
23568;DHT22;11962;50.838;4.430;2023-01-05T02:04:27;11.90;99.90
23568;DHT22;11962;50.838;4.430;2023-01-05T02:06:55;11.90;99.90
23568;DHT22;11962;50.838;4.430;2023-01-05T02:09:21;11.90;99.90
23568;DHT22;11962;50.838;4.430;2023-01-05T02:12:08;11.90;99.90
23568;DHT22;11962;50.838;4.430;2023-01-05T02:36:28;11.90;99.90
23568;DHT22;11962;50.838;4.430;2023-01-05T02:39:13;11.90;99.90
23568;DHT22;11962;50.838;4.430;2023-01-05T02:44:18;11.90;99.90
23568;DHT22;11962;50.838;4.430;2023-01-05T02:46:45;12.00;99.90
23568;DHT22;11962;50.838;4.430;2023-01-05T02:49:13;11.90;99.90
23568;DHT22;11962;50.838;4.430;2023-01-05T02:51:46;11.90;99.90
23568;DHT22;11962;50.838;4.430;2023-01-05T02:54:37;11.90;99.90
23568;DHT22;11962;50.838;4.430;2023-01-05T02:57:21;11.90;99.90
23568;DHT22;11962;50.838;4.430;2023-01-05T03:00:45;11.90;99.90
23568;DHT22;11962;50.838;4.430;2023-01-05T03:03:13;11.80;99.90
23568;DHT22;11962;50.838;4.430;2023-01-05T03:05:55;11.80;99.90
23568;DHT22;11962;50.838;4.430;2023-01-05T03:08:24;11.70;99.90
23568;DHT22;11962;50.838;4.430;2023-01-05T03:13:39;11.70;99.90
23568;DHT22;11962;50.838;4.430;2023-01-05T03:16:09;11.80;99.90
23568;DHT22;11962;50.838;4.430;2023-01-05T03:18:37;11.80;99.90
23568;DHT22;11962;50.838;4.430;2023-01-05T03:21:25;11.80;99.90
23568;DHT22;11962;50.838;4.430;2023-01-05T03:23:53;11.80;99.90
23568;DHT22;11962;50.838;4.430;2023-01-05T03:26:42;11.90;99.90
23568;DHT22;11962;50.838;4.430;2023-01-05T03:29:27;12.00;99.90
23568;DHT22;11962;50.838;4.430;2023-01-05T03:32:22;12.00;99.90
23568;DHT22;11962;50.838;4.430;2023-01-05T03:35:15;12.00;99.90
23568;DHT22;11962;50.838;4.430;2023-01-05T03:37:56;11.90;99.90
23568;DHT22;11962;50.838;4.430;2023-01-05T03:40:28;12.00;99.90
23568;DHT22;11962;50.838;4.430;2023-01-05T03:42:55;12.00;99.90
23568;DHT22;11962;50.838;4.430;2023-01-05T03:45:22;11.90;99.90
23568;DHT22;11962;50.838;4.430;2023-01-05T03:47:49;11.90;99.90
23568;DHT22;11962;50.838;4.430;2023-01-05T03:50:16;12.00;99.90
23568;DHT22;11962;50.838;4.430;2023-01-05T03:52:44;11.90;99.90
23568;DHT22;11962;50.838;4.430;2023-01-05T03:55:11;12.00;99.90
23568;DHT22;11962;50.838;4.430;2023-01-05T03:57:39;12.00;99.90
23568;DHT22;11962;50.838;4.430;2023-01-05T04:00:12;12.10;99.90
23568;DHT22;11962;50.838;4.430;2023-01-05T04:02:45;12.10;99.90
23568;DHT22;11962;50.838;4.430;2023-01-05T04:05:16;12.10;99.90
23568;DHT22;11962;50.838;4.430;2023-01-05T04:07:45;12.10;99.90
23568;DHT22;11962;50.838;4.430;2023-01-05T04:10:21;12.00;99.90
23568;DHT22;11962;50.838;4.430;2023-01-05T04:12:54;12.10;99.90
23568;DHT22;11962;50.838;4.430;2023-01-05T04:15:20;12.10;99.90
23568;DHT22;11962;50.838;4.430;2023-01-05T04:17:46;12.10;99.90
23568;DHT22;11962;50.838;4.430;2023-01-05T04:20:14;12.20;99.90
23568;DHT22;11962;50.838;4.430;2023-01-05T04:22:40;12.20;99.90
23568;DHT22;11962;50.838;4.430;2023-01-05T04:25:06;12.30;99.90
23568;DHT22;11962;50.838;4.430;2023-01-05T04:27:32;12.20;99.90
23568;DHT22;11962;50.838;4.430;2023-01-05T04:29:58;12.20;99.90
23568;DHT22;11962;50.838;4.430;2023-01-05T04:32:24;12.20;99.90
23568;DHT22;11962;50.838;4.430;2023-01-05T04:34:49;12.20;99.90
23568;DHT22;11962;50.838;4.430;2023-01-05T04:37:18;12.20;99.90
23568;DHT22;11962;50.838;4.430;2023-01-05T04:39:44;12.20;99.90
23568;DHT22;11962;50.838;4.430;2023-01-05T04:42:09;12.20;99.90
23568;DHT22;11962;50.838;4.430;2023-01-05T04:44:36;12.10;99.90
23568;DHT22;11962;50.838;4.430;2023-01-05T04:47:02;12.20;99.90
23568;DHT22;11962;50.838;4.430;2023-01-05T04:49:27;12.20;99.90
23568;DHT22;11962;50.838;4.430;2023-01-05T04:51:54;12.20;99.90
23568;DHT22;11962;50.838;4.430;2023-01-05T04:54:20;12.20;99.90
23568;DHT22;11962;50.838;4.430;2023-01-05T04:56:45;12.10;99.90
23568;DHT22;11962;50.838;4.430;2023-01-05T04:59:11;12.00;99.90
23568;DHT22;11962;50.838;4.430;2023-01-05T05:01:37;12.00;99.90
23568;DHT22;11962;50.838;4.430;2023-01-05T05:04:05;12.00;99.90
23568;DHT22;11962;50.838;4.430;2023-01-05T05:06:31;12.00;99.90
23568;DHT22;11962;50.838;4.430;2023-01-05T05:08:57;12.00;99.90
23568;DHT22;11962;50.838;4.430;2023-01-05T05:11:25;12.00;99.90
23568;DHT22;11962;50.838;4.430;2023-01-05T05:13:55;11.90;99.90
23568;DHT22;11962;50.838;4.430;2023-01-05T05:16:21;11.80;99.90
23568;DHT22;11962;50.838;4.430;2023-01-05T05:18:58;11.70;99.90
23568;DHT22;11962;50.838;4.430;2023-01-05T05:21:23;11.70;99.90
23568;DHT22;11962;50.838;4.430;2023-01-05T05:23:52;11.70;99.90
23568;DHT22;11962;50.838;4.430;2023-01-05T05:26:23;11.70;99.90
23568;DHT22;11962;50.838;4.430;2023-01-05T05:28:57;11.60;99.90
23568;DHT22;11962;50.838;4.430;2023-01-05T05:31:32;11.70;99.90
23568;DHT22;11962;50.838;4.430;2023-01-05T05:34:00;11.60;99.90
23568;DHT22;11962;50.838;4.430;2023-01-05T05:36:26;11.60;99.90
23568;DHT22;11962;50.838;4.430;2023-01-05T05:38:52;11.60;99.90
23568;DHT22;11962;50.838;4.430;2023-01-05T05:41:19;11.60;99.90
23568;DHT22;11962;50.838;4.430;2023-01-05T05:43:59;11.60;99.90
23568;DHT22;11962;50.838;4.430;2023-01-05T05:46:31;11.60;99.90
23568;DHT22;11962;50.838;4.430;2023-01-05T05:49:02;11.60;99.90
23568;DHT22;11962;50.838;4.430;2023-01-05T05:51:29;11.70;99.90
23568;DHT22;11962;50.838;4.430;2023-01-05T05:53:54;11.70;99.90
23568;DHT22;11962;50.838;4.430;2023-01-05T05:56:20;11.80;99.90
23568;DHT22;11962;50.838;4.430;2023-01-05T05:58:46;11.90;99.90
23568;DHT22;11962;50.838;4.430;2023-01-05T06:01:11;11.80;99.90
23568;DHT22;11962;50.838;4.430;2023-01-05T06:03:37;11.90;99.90
23568;DHT22;11962;50.838;4.430;2023-01-05T06:06:04;12.00;99.90
23568;DHT22;11962;50.838;4.430;2023-01-05T06:08:30;11.90;99.90
23568;DHT22;11962;50.838;4.430;2023-01-05T06:10:56;11.90;99.90
23568;DHT22;11962;50.838;4.430;2023-01-05T06:13:22;11.90;99.90
23568;DHT22;11962;50.838;4.430;2023-01-05T06:15:48;11.80;99.90
23568;DHT22;11962;50.838;4.430;2023-01-05T06:18:14;11.80;99.90
23568;DHT22;11962;50.838;4.430;2023-01-05T06:20:40;11.80;99.90
23568;DHT22;11962;50.838;4.430;2023-01-05T06:23:06;11.80;99.90
23568;DHT22;11962;50.838;4.430;2023-01-05T06:25:32;11.90;99.90
23568;DHT22;11962;50.838;4.430;2023-01-05T06:27:57;11.90;99.90
23568;DHT22;11962;50.838;4.430;2023-01-05T06:30:23;11.90;99.90
23568;DHT22;11962;50.838;4.430;2023-01-05T06:32:49;11.80;99.90
23568;DHT22;11962;50.838;4.430;2023-01-05T06:35:15;11.80;99.90
23568;DHT22;11962;50.838;4.430;2023-01-05T06:37:41;11.70;99.90
23568;DHT22;11962;50.838;4.430;2023-01-05T06:40:07;11.80;99.90
23568;DHT22;11962;50.838;4.430;2023-01-05T06:42:34;11.80;99.90
23568;DHT22;11962;50.838;4.430;2023-01-05T06:45:03;11.90;99.90
23568;DHT22;11962;50.838;4.430;2023-01-05T06:47:34;11.80;99.90
23568;DHT22;11962;50.838;4.430;2023-01-05T06:50:08;11.80;99.90
23568;DHT22;11962;50.838;4.430;2023-01-05T06:52:41;11.80;99.90
23568;DHT22;11962;50.838;4.430;2023-01-05T06:55:18;11.80;99.90
23568;DHT22;11962;50.838;4.430;2023-01-05T06:57:46;11.70;99.90
23568;DHT22;11962;50.838;4.430;2023-01-05T07:00:16;11.70;99.90
23568;DHT22;11962;50.838;4.430;2023-01-05T07:02:45;11.80;99.90
23568;DHT22;11962;50.838;4.430;2023-01-05T07:05:10;11.80;99.90
23568;DHT22;11962;50.838;4.430;2023-01-05T07:07:46;11.70;99.90
23568;DHT22;11962;50.838;4.430;2023-01-05T07:20:57;11.70;99.90
23568;DHT22;11962;50.838;4.430;2023-01-05T07:24:04;11.80;99.90
23568;DHT22;11962;50.838;4.430;2023-01-05T07:29:34;11.90;99.90
23568;DHT22;11962;50.838;4.430;2023-01-05T07:33:14;11.90;99.90
23568;DHT22;11962;50.838;4.430;2023-01-05T07:40:05;12.00;99.90
23568;DHT22;11962;50.838;4.430;2023-01-05T07:42:33;11.90;99.90
23568;DHT22;11962;50.838;4.430;2023-01-05T07:50:42;11.70;99.90
23568;DHT22;11962;50.838;4.430;2023-01-05T07:53:46;11.70;99.90
23568;DHT22;11962;50.838;4.430;2023-01-05T07:56:18;11.80;99.90
23568;DHT22;11962;50.838;4.430;2023-01-05T07:58:51;11.80;99.90
23568;DHT22;11962;50.838;4.430;2023-01-05T08:09:04;11.90;99.90
23568;DHT22;11962;50.838;4.430;2023-01-05T08:15:42;12.00;99.90
23568;DHT22;11962;50.838;4.430;2023-01-05T08:19:22;11.90;99.90
23568;DHT22;11962;50.838;4.430;2023-01-05T08:35:38;12.10;99.90
23568;DHT22;11962;50.838;4.430;2023-01-05T08:38:45;12.10;99.90
23568;DHT22;11962;50.838;4.430;2023-01-05T08:41:48;12.30;99.90
23568;DHT22;11962;50.838;4.430;2023-01-05T09:04:46;12.70;99.90
23568;DHT22;11962;50.838;4.430;2023-01-05T09:07:50;12.80;99.90
23568;DHT22;11962;50.838;4.430;2023-01-05T09:17:40;13.00;99.90
23568;DHT22;11962;50.838;4.430;2023-01-05T09:26:15;13.10;99.90
23568;DHT22;11962;50.838;4.430;2023-01-05T09:29:16;13.20;99.90
23568;DHT22;11962;50.838;4.430;2023-01-05T09:32:09;13.30;99.90
23568;DHT22;11962;50.838;4.430;2023-01-05T09:38:39;13.30;99.90
23568;DHT22;11962;50.838;4.430;2023-01-05T09:45:27;13.30;99.90
23568;DHT22;11962;50.838;4.430;2023-01-05T10:05:29;14.70;99.90
23568;DHT22;11962;50.838;4.430;2023-01-05T10:39:01;16.30;99.90
23568;DHT22;11962;50.838;4.430;2023-01-05T10:44:41;17.30;99.90
23568;DHT22;11962;50.838;4.430;2023-01-05T10:49:49;17.40;99.90
23568;DHT22;11962;50.838;4.430;2023-01-05T10:52:20;17.30;99.90
23568;DHT22;11962;50.838;4.430;2023-01-05T11:02:50;16.30;99.90
23568;DHT22;11962;50.838;4.430;2023-01-05T11:07:55;16.90;99.90
23568;DHT22;11962;50.838;4.430;2023-01-05T11:10:35;17.10;99.90
23568;DHT22;11962;50.838;4.430;2023-01-05T11:13:23;17.00;99.90
23568;DHT22;11962;50.838;4.430;2023-01-05T11:47:19;16.10;99.90
23568;DHT22;11962;50.838;4.430;2023-01-05T11:56:23;15.80;99.90
23568;DHT22;11962;50.838;4.430;2023-01-05T12:11:26;15.90;99.90
23568;DHT22;11962;50.838;4.430;2023-01-05T12:14:23;15.70;99.90
23568;DHT22;11962;50.838;4.430;2023-01-05T12:50:27;15.10;99.90
23568;DHT22;11962;50.838;4.430;2023-01-05T12:58:44;14.90;99.90
23568;DHT22;11962;50.838;4.430;2023-01-05T13:56:33;14.10;99.90
23568;DHT22;11962;50.838;4.430;2023-01-05T13:59:38;14.10;99.90
23568;DHT22;11962;50.838;4.430;2023-01-05T14:22:00;13.80;99.90
23568;DHT22;11962;50.838;4.430;2023-01-05T14:24:53;13.70;99.90
23568;DHT22;11962;50.838;4.430;2023-01-05T14:30:41;13.70;99.90
23568;DHT22;11962;50.838;4.430;2023-01-05T14:39:44;13.80;99.90
23568;DHT22;11962;50.838;4.430;2023-01-05T14:42:18;13.80;99.90
23568;DHT22;11962;50.838;4.430;2023-01-05T14:45:30;13.80;99.90
23568;DHT22;11962;50.838;4.430;2023-01-05T15:05:13;14.00;99.90
23568;DHT22;11962;50.838;4.430;2023-01-05T15:49:29;13.80;99.90
23568;DHT22;11962;50.838;4.430;2023-01-05T15:56:00;13.70;99.90
23568;DHT22;11962;50.838;4.430;2023-01-05T15:58:42;13.80;99.90
23568;DHT22;11962;50.838;4.430;2023-01-05T16:01:44;13.70;99.90
23568;DHT22;11962;50.838;4.430;2023-01-05T16:08:26;13.70;99.90
23568;DHT22;11962;50.838;4.430;2023-01-05T16:11:23;13.70;99.90
23568;DHT22;11962;50.838;4.430;2023-01-05T16:16:44;13.60;99.90
23568;DHT22;11962;50.838;4.430;2023-01-05T16:31:55;13.50;99.90
23568;DHT22;11962;50.838;4.430;2023-01-05T16:34:21;13.50;99.90
23568;DHT22;11962;50.838;4.430;2023-01-05T16:37:17;13.50;99.90
23568;DHT22;11962;50.838;4.430;2023-01-05T16:47:17;13.50;99.90
23568;DHT22;11962;50.838;4.430;2023-01-05T17:07:35;13.40;99.90
23568;DHT22;11962;50.838;4.430;2023-01-05T17:16:25;13.40;99.90
23568;DHT22;11962;50.838;4.430;2023-01-05T17:19:43;13.50;99.90
23568;DHT22;11962;50.838;4.430;2023-01-05T17:22:28;13.40;99.90
23568;DHT22;11962;50.838;4.430;2023-01-05T17:24:56;13.40;99.90
23568;DHT22;11962;50.838;4.430;2023-01-05T17:27:33;13.40;99.90
23568;DHT22;11962;50.838;4.430;2023-01-05T17:29:59;13.50;99.90
23568;DHT22;11962;50.838;4.430;2023-01-05T17:39:00;13.40;99.90
23568;DHT22;11962;50.838;4.430;2023-01-05T17:44:43;13.30;99.90
23568;DHT22;11962;50.838;4.430;2023-01-05T17:51:45;13.30;99.90
23568;DHT22;11962;50.838;4.430;2023-01-05T17:54:53;13.40;99.90
23568;DHT22;11962;50.838;4.430;2023-01-05T17:57:41;13.30;99.90
23568;DHT22;11962;50.838;4.430;2023-01-05T18:00:42;13.30;99.90
23568;DHT22;11962;50.838;4.430;2023-01-05T18:06:58;13.40;99.90
23568;DHT22;11962;50.838;4.430;2023-01-05T18:09:55;13.40;99.90
23568;DHT22;11962;50.838;4.430;2023-01-05T18:12:59;13.50;99.90
23568;DHT22;11962;50.838;4.430;2023-01-05T18:30:00;13.40;99.90
23568;DHT22;11962;50.838;4.430;2023-01-05T18:36:14;13.50;99.90
23568;DHT22;11962;50.838;4.430;2023-01-05T18:46:46;13.40;99.90
23568;DHT22;11962;50.838;4.430;2023-01-05T18:49:39;13.40;99.90
23568;DHT22;11962;50.838;4.430;2023-01-05T18:52:05;13.40;99.90
23568;DHT22;11962;50.838;4.430;2023-01-05T18:55:06;13.40;99.90
23568;DHT22;11962;50.838;4.430;2023-01-05T18:58:25;13.30;99.90
23568;DHT22;11962;50.838;4.430;2023-01-05T19:00:58;13.40;99.90
23568;DHT22;11962;50.838;4.430;2023-01-05T19:06:07;13.40;99.90
23568;DHT22;11962;50.838;4.430;2023-01-05T19:08:34;13.30;99.90
23568;DHT22;11962;50.838;4.430;2023-01-05T19:11:08;13.30;99.90
23568;DHT22;11962;50.838;4.430;2023-01-05T19:13:59;13.30;99.90
23568;DHT22;11962;50.838;4.430;2023-01-05T19:20:19;13.30;99.90
23568;DHT22;11962;50.838;4.430;2023-01-05T19:23:05;13.30;99.90
23568;DHT22;11962;50.838;4.430;2023-01-05T19:26:18;13.30;99.90
23568;DHT22;11962;50.838;4.430;2023-01-05T19:40:26;13.20;99.90
23568;DHT22;11962;50.838;4.430;2023-01-05T19:42:55;13.20;99.90
23568;DHT22;11962;50.838;4.430;2023-01-05T19:50:32;13.10;99.90
23568;DHT22;11962;50.838;4.430;2023-01-05T19:52:57;13.10;99.90
23568;DHT22;11962;50.838;4.430;2023-01-05T19:55:23;13.00;99.90
23568;DHT22;11962;50.838;4.430;2023-01-05T19:57:52;13.10;99.90
23568;DHT22;11962;50.838;4.430;2023-01-05T20:01:13;13.10;99.90
23568;DHT22;11962;50.838;4.430;2023-01-05T20:07:32;13.00;99.90
23568;DHT22;11962;50.838;4.430;2023-01-05T20:10:01;13.00;99.90
23568;DHT22;11962;50.838;4.430;2023-01-05T20:12:28;13.00;99.90
23568;DHT22;11962;50.838;4.430;2023-01-05T20:14:53;13.00;99.90
23568;DHT22;11962;50.838;4.430;2023-01-05T20:17:20;12.90;99.90
23568;DHT22;11962;50.838;4.430;2023-01-05T20:19:46;12.90;99.90
23568;DHT22;11962;50.838;4.430;2023-01-05T20:22:12;13.00;99.90
23568;DHT22;11962;50.838;4.430;2023-01-05T20:24:38;13.00;99.90
23568;DHT22;11962;50.838;4.430;2023-01-05T20:39:21;13.00;99.90
23568;DHT22;11962;50.838;4.430;2023-01-05T21:01:40;13.00;99.90
23568;DHT22;11962;50.838;4.430;2023-01-05T21:04:14;12.90;99.90
23568;DHT22;11962;50.838;4.430;2023-01-05T21:07:09;12.80;99.90
23568;DHT22;11962;50.838;4.430;2023-01-05T21:10:08;12.80;99.90
23568;DHT22;11962;50.838;4.430;2023-01-05T21:12:40;12.90;99.90
23568;DHT22;11962;50.838;4.430;2023-01-05T21:15:36;12.90;99.90
23568;DHT22;11962;50.838;4.430;2023-01-05T21:18:23;12.90;99.90
23568;DHT22;11962;50.838;4.430;2023-01-05T21:21:13;12.90;99.90
23568;DHT22;11962;50.838;4.430;2023-01-05T21:27:38;12.90;99.90
23568;DHT22;11962;50.838;4.430;2023-01-05T21:33:35;12.90;99.90
23568;DHT22;11962;50.838;4.430;2023-01-05T21:36:41;12.80;99.90
23568;DHT22;11962;50.838;4.430;2023-01-05T21:39:32;12.80;99.90
23568;DHT22;11962;50.838;4.430;2023-01-05T21:45:50;12.90;99.90
23568;DHT22;11962;50.838;4.430;2023-01-05T21:48:28;12.90;99.90
23568;DHT22;11962;50.838;4.430;2023-01-05T21:51:54;12.90;99.90
23568;DHT22;11962;50.838;4.430;2023-01-05T21:54:47;12.90;99.90
23568;DHT22;11962;50.838;4.430;2023-01-05T21:58:06;12.90;99.90
23568;DHT22;11962;50.838;4.430;2023-01-05T22:04:02;12.90;99.90
23568;DHT22;11962;50.838;4.430;2023-01-05T22:06:46;12.80;99.90
23568;DHT22;11962;50.838;4.430;2023-01-05T22:16:38;12.80;99.90
23568;DHT22;11962;50.838;4.430;2023-01-05T22:19:48;12.80;99.90
23568;DHT22;11962;50.838;4.430;2023-01-05T22:23:09;12.80;99.90
23568;DHT22;11962;50.838;4.430;2023-01-05T22:42:53;12.80;99.90
23568;DHT22;11962;50.838;4.430;2023-01-05T22:46:01;12.70;99.90
23568;DHT22;11962;50.838;4.430;2023-01-05T22:51:57;12.70;99.90
23568;DHT22;11962;50.838;4.430;2023-01-05T22:58:27;12.70;99.90
23568;DHT22;11962;50.838;4.430;2023-01-05T23:05:05;12.70;99.90
23568;DHT22;11962;50.838;4.430;2023-01-05T23:07:49;12.70;99.90
23568;DHT22;11962;50.838;4.430;2023-01-05T23:41:02;12.70;99.90
23568;DHT22;11962;50.838;4.430;2023-01-05T23:43:59;12.70;99.90
23568;DHT22;11962;50.838;4.430;2023-01-05T23:50:03;12.60;99.90
23568;DHT22;11962;50.838;4.430;2023-01-05T23:52:51;12.70;99.90
23568;DHT22;11962;50.838;4.430;2023-01-05T23:59:18;12.70;99.90
